createdAt,value
2022-11-01T00:02:11.926Z,19.95
2022-11-01T00:04:39.140Z,21.85
2022-11-01T00:07:06.697Z,20.30
2022-11-01T00:09:33.674Z,21.35
2022-11-01T00:12:00.452Z,18.83
2022-11-01T00:14:27.172Z,19.20
2022-11-01T00:16:54.008Z,19.95
2022-11-01T00:19:20.744Z,20.08
2022-11-01T00:21:47.534Z,21.02
2022-11-01T00:24:14.462Z,18.67
2022-11-01T00:26:41.288Z,20.77
2022-11-01T00:29:08.311Z,21.15
2022-11-01T00:31:35.375Z,19.45
2022-11-01T00:34:05.537Z,18.50
2022-11-01T00:36:33.923Z,18.85
2022-11-01T00:39:00.949Z,18.35
2022-11-01T00:41:27.751Z,18.55
2022-11-01T00:43:54.513Z,20.00
2022-11-01T00:46:21.219Z,22.30
2022-11-01T00:48:47.984Z,19.45
2022-11-01T00:51:14.689Z,18.33
2022-11-01T00:53:41.777Z,20.33
2022-11-01T00:56:09.103Z,19.58
2022-11-01T00:58:35.880Z,21.92
2022-11-01T01:01:02.930Z,20.83
2022-11-01T01:03:29.795Z,20.00
2022-11-01T01:05:57.371Z,19.88
2022-11-01T01:08:25.042Z,19.23
2022-11-01T01:10:51.974Z,18.98
2022-11-01T01:13:19.113Z,19.60
2022-11-01T01:15:46.266Z,19.58
2022-11-01T01:18:13.741Z,19.63
2022-11-01T01:20:40.555Z,20.55
2022-11-01T01:23:07.463Z,19.02
2022-11-01T01:25:34.274Z,18.88
2022-11-01T01:28:01.453Z,19.65
2022-11-01T01:30:28.658Z,21.63
2022-11-01T01:32:55.401Z,19.02
2022-11-01T01:35:22.112Z,18.67
2022-11-01T01:37:48.833Z,19.95
2022-11-01T01:40:15.623Z,19.10
2022-11-01T01:42:43.283Z,19.98
2022-11-01T01:45:29.680Z,19.48
2022-11-01T01:48:12.648Z,22.05
2022-11-01T01:50:58.549Z,17.75
2022-11-01T01:53:31.351Z,18.25
2022-11-01T01:56:03.745Z,18.17
2022-11-01T01:58:37.433Z,16.02
2022-11-01T02:01:05.322Z,18.65
2022-11-01T02:03:34.806Z,17.55
2022-11-01T02:06:09.439Z,19.48
2022-11-01T02:08:41.994Z,18.73
2022-11-01T02:11:11.006Z,15.52
2022-11-01T02:13:38.416Z,15.48
2022-11-01T02:16:35.776Z,16.45
2022-11-01T02:19:46.734Z,16.50
2022-11-01T02:23:05.692Z,14.35
2022-11-01T02:26:11.716Z,19.08
2022-11-01T02:29:26.518Z,15.77
2022-11-01T02:32:19.204Z,17.35
2022-11-01T02:35:12.266Z,15.52
2022-11-01T02:38:07.280Z,16.48
2022-11-01T02:40:51.160Z,15.52
2022-11-01T02:43:30.667Z,16.02
2022-11-01T02:46:19.911Z,16.48
2022-11-01T02:48:49.099Z,18.13
2022-11-01T02:51:21.336Z,16.75
2022-11-01T02:53:48.069Z,18.70
2022-11-01T02:56:17.641Z,16.15
2022-11-01T02:58:47.825Z,15.65
2022-11-01T03:01:23.677Z,17.73
2022-11-01T03:03:54.009Z,17.35
2022-11-01T03:06:33.971Z,17.38
2022-11-01T03:09:06.291Z,19.45
2022-11-01T03:11:53.376Z,18.90
2022-11-01T03:14:45.425Z,15.98
2022-11-01T03:17:22.969Z,15.93
2022-11-01T03:20:05.715Z,17.00
2022-11-01T03:22:44.101Z,14.65
2022-11-01T03:25:41.777Z,15.30
2022-11-01T03:28:27.101Z,16.38
2022-11-01T03:31:05.404Z,15.50
2022-11-01T03:33:37.292Z,16.38
2022-11-01T03:36:13.672Z,18.08
2022-11-01T03:38:48.761Z,15.50
2022-11-01T03:43:47.392Z,15.70
2022-11-01T03:46:15.659Z,14.82
2022-11-01T03:48:42.519Z,15.00
2022-11-01T03:51:09.409Z,16.52
2022-11-01T03:53:36.386Z,15.90
2022-11-01T03:56:03.132Z,15.25
2022-11-01T03:58:41.613Z,15.73
2022-11-01T04:01:10.899Z,14.88
2022-11-01T04:03:38.791Z,15.27
2022-11-01T04:06:06.150Z,14.57
2022-11-01T04:08:36.851Z,15.07
2022-11-01T04:11:04.499Z,15.68
2022-11-01T04:13:31.270Z,16.00
2022-11-01T04:16:17.721Z,15.88
2022-11-01T04:19:03.782Z,15.73
2022-11-01T04:21:32.307Z,17.30
2022-11-01T04:23:59.168Z,14.90
2022-11-01T04:26:26.619Z,16.05
2022-11-01T04:28:58.981Z,16.25
2022-11-01T04:31:36.660Z,19.52
2022-11-01T04:34:05.427Z,18.27
2022-11-01T04:36:32.659Z,18.88
2022-11-01T04:38:59.617Z,16.23
2022-11-01T04:41:29.415Z,18.67
2022-11-01T04:43:58.988Z,17.58
2022-11-01T04:46:28.898Z,17.42
2022-11-01T04:48:55.611Z,14.77
2022-11-01T04:51:22.331Z,18.20
2022-11-01T04:53:49.098Z,18.38
2022-11-01T04:56:16.584Z,16.80
2022-11-01T04:58:46.450Z,16.17
2022-11-01T05:01:14.467Z,17.05
2022-11-01T05:03:42.188Z,21.23
2022-11-01T05:06:08.989Z,18.58
2022-11-01T05:08:36.259Z,22.00
2022-11-01T05:11:03.217Z,17.77
2022-11-01T05:13:30.483Z,18.52
2022-11-01T05:16:18.303Z,17.10
2022-11-01T05:18:44.024Z,17.45
2022-11-01T05:21:11.808Z,18.60
2022-11-01T05:23:38.951Z,17.95
2022-11-01T05:26:06.168Z,19.10
2022-11-01T05:28:32.973Z,17.35
2022-11-01T05:30:59.718Z,17.65
2022-11-01T05:33:26.554Z,18.08
2022-11-01T05:35:53.352Z,19.67
2022-11-01T05:38:20.164Z,19.65
2022-11-01T05:40:46.997Z,18.40
2022-11-01T05:43:13.712Z,18.42
2022-11-01T05:45:40.489Z,18.63
2022-11-01T05:48:07.311Z,17.50
2022-11-01T05:50:34.117Z,19.67
2022-11-01T05:53:08.355Z,18.15
2022-11-01T05:55:36.093Z,18.92
2022-11-01T05:58:03.477Z,18.77
2022-11-01T06:00:30.292Z,17.00
2022-11-01T06:03:00.578Z,16.48
2022-11-01T06:05:29.135Z,19.35
2022-11-01T06:07:56.657Z,17.38
2022-11-01T06:10:24.227Z,16.27
2022-11-01T06:12:50.975Z,20.98
2022-11-01T06:15:17.992Z,17.15
2022-11-01T06:17:44.927Z,17.13
2022-11-01T06:20:12.217Z,17.33
2022-11-01T06:22:39.634Z,17.17
2022-11-01T06:25:08.224Z,17.92
2022-11-01T06:27:35.240Z,18.30
2022-11-01T06:30:02.078Z,17.45
2022-11-01T06:32:28.843Z,21.20
2022-11-01T06:34:55.653Z,19.33
2022-11-01T06:37:22.426Z,19.60
2022-11-01T06:39:49.293Z,18.65
2022-11-01T06:42:16.325Z,16.08
2022-11-01T06:44:43.077Z,19.92
2022-11-01T06:47:12.375Z,18.17
2022-11-01T06:49:39.665Z,19.02
2022-11-01T06:52:07.102Z,18.77
2022-11-01T06:54:34.057Z,20.02
2022-11-01T06:57:00.795Z,21.13
2022-11-01T06:59:27.541Z,17.75
2022-11-01T07:01:54.565Z,19.13
2022-11-01T07:04:21.611Z,19.90
2022-11-01T07:06:48.325Z,22.25
2022-11-01T07:09:15.242Z,19.50
2022-11-01T07:11:42.064Z,18.95
2022-11-01T07:14:09.940Z,21.80
2022-11-01T07:16:40.696Z,19.10
2022-11-01T07:19:07.600Z,19.38
2022-11-01T07:21:34.315Z,17.50
2022-11-01T07:24:01.165Z,17.67
2022-11-01T07:26:28.018Z,21.20
2022-11-01T07:28:54.785Z,20.65
2022-11-01T07:31:21.584Z,16.05
2022-11-01T07:33:48.340Z,18.42
2022-11-01T07:36:15.101Z,20.65
2022-11-01T07:38:41.908Z,21.73
2022-11-01T07:41:09.161Z,16.95
2022-11-01T07:43:36.676Z,17.52
2022-11-01T07:46:07.211Z,20.30
2022-11-01T07:48:36.682Z,19.27
2022-11-01T07:51:06.046Z,19.67
2022-11-01T07:53:33.991Z,17.88
2022-11-01T07:56:02.037Z,21.13
2022-11-01T07:58:29.393Z,18.83
2022-11-01T08:00:56.654Z,19.58
2022-11-01T08:03:23.992Z,17.35
2022-11-01T08:05:50.769Z,19.02
2022-11-01T08:08:20.658Z,15.77
2022-11-01T08:10:47.373Z,18.65
2022-11-01T08:13:18.147Z,16.52
2022-11-01T08:15:46.397Z,18.55
2022-11-01T08:18:13.418Z,17.73
2022-11-01T08:20:41.144Z,17.67
2022-11-01T08:23:08.861Z,16.70
2022-11-01T08:25:36.433Z,15.32
2022-11-01T08:28:10.431Z,19.58
2022-11-01T08:30:40.064Z,15.00
2022-11-01T08:33:07.103Z,14.02
2022-11-01T08:35:35.155Z,15.25
2022-11-01T08:38:03.487Z,15.70
2022-11-01T08:40:32.401Z,18.38
2022-11-01T08:42:59.723Z,15.27
2022-11-01T08:45:27.408Z,15.23
2022-11-01T08:47:59.669Z,17.30
2022-11-01T08:50:27.464Z,14.50
2022-11-01T08:52:54.433Z,14.82
2022-11-01T08:55:21.794Z,15.18
2022-11-01T08:57:48.669Z,15.18
2022-11-01T09:00:16.793Z,14.52
2022-11-01T09:02:43.793Z,15.35
2022-11-01T09:05:10.785Z,12.80
2022-11-01T09:07:38.654Z,14.23
2022-11-01T09:10:07.073Z,13.88
2022-11-01T09:12:34.509Z,15.80
2022-11-01T09:15:01.489Z,14.95
2022-11-01T09:17:28.312Z,14.40
2022-11-01T09:19:55.276Z,12.75
2022-11-01T09:22:22.922Z,14.75
2022-11-01T09:24:50.523Z,14.55
2022-11-01T09:27:17.280Z,12.38
2022-11-01T09:29:46.564Z,13.93
2022-11-01T09:32:16.221Z,15.70
2022-11-01T09:34:42.968Z,12.98
2022-11-01T09:37:09.733Z,14.30
2022-11-01T09:39:36.460Z,12.27
2022-11-01T09:42:10.951Z,11.93
2022-11-01T09:44:45.574Z,12.68
2022-11-01T09:47:21.795Z,11.50
2022-11-01T09:50:00.474Z,16.15
2022-11-01T09:52:27.560Z,13.43
2022-11-01T09:54:54.345Z,12.65
2022-11-01T09:57:39.901Z,13.02
2022-11-01T10:00:19.245Z,9.15
2022-11-01T10:03:46.789Z,10.55
2022-11-01T10:06:30.237Z,11.00
2022-11-01T10:09:31.470Z,12.18
2022-11-01T10:12:24.197Z,10.27
2022-11-01T10:15:26.537Z,10.68
2022-11-01T10:17:56.707Z,9.20
2022-11-01T10:20:32.964Z,10.13
2022-11-01T10:23:04.187Z,12.07
2022-11-01T10:25:36.129Z,10.60
2022-11-01T10:28:18.353Z,9.32
2022-11-01T10:30:53.493Z,11.23
2022-11-01T10:33:33.868Z,9.90
2022-11-01T10:36:14.480Z,11.70
2022-11-01T10:39:36.964Z,9.23
2022-11-01T10:41:43.326Z,10.57
2022-11-01T10:44:33.172Z,9.52
2022-11-01T10:47:07.118Z,9.80
2022-11-01T10:50:04.986Z,8.15
2022-11-01T10:52:51.930Z,10.75
2022-11-01T10:55:34.014Z,10.30
2022-11-01T10:58:36.338Z,11.48
2022-11-01T11:01:07.615Z,9.13
2022-11-01T11:03:34.782Z,8.45
2022-11-01T11:06:10.403Z,9.88
2022-11-01T11:08:41.105Z,9.65
2022-11-01T11:11:15.345Z,8.50
2022-11-01T11:13:50.893Z,9.52
2022-11-01T11:16:45.834Z,9.43
2022-11-01T11:19:30.659Z,10.57
2022-11-01T11:21:59.963Z,10.20
2022-11-01T11:24:37.974Z,9.65
2022-11-01T11:27:18.405Z,7.18
2022-11-01T11:29:54.084Z,8.63
2022-11-01T11:32:26.109Z,8.38
2022-11-01T11:35:06.953Z,8.15
2022-11-01T11:37:38.469Z,8.50
2022-11-01T11:40:24.630Z,10.10
2022-11-01T11:43:22.385Z,6.95
2022-11-01T11:46:23.394Z,6.63
2022-11-01T11:49:04.332Z,7.50
2022-11-01T11:51:37.429Z,7.30
2022-11-01T11:54:24.710Z,7.55
2022-11-01T11:57:18.021Z,8.38
2022-11-01T11:59:51.343Z,9.20
2022-11-01T12:02:27.323Z,11.02
2022-11-01T12:05:03.549Z,8.45
2022-11-01T12:07:53.971Z,9.38
2022-11-01T12:10:45.624Z,5.30
2022-11-01T12:13:41.201Z,6.20
2022-11-01T12:16:14.714Z,5.60
2022-11-01T12:18:59.669Z,6.47
2022-11-01T12:21:44.357Z,7.18
2022-11-01T12:24:28.283Z,5.38
2022-11-01T12:29:39.279Z,5.72
2022-11-01T12:32:48.025Z,5.18
2022-11-01T12:35:42.734Z,6.43
2022-11-01T12:38:33.444Z,6.63
2022-11-01T12:41:21.811Z,7.18
2022-11-01T12:44:13.400Z,7.88
2022-11-01T12:47:08.530Z,5.53
2022-11-01T12:50:07.324Z,6.93
2022-11-01T12:52:57.407Z,7.25
2022-11-01T12:55:38.205Z,6.95
2022-11-01T12:58:13.288Z,8.02
2022-11-01T13:01:31.002Z,7.53
2022-11-01T13:04:37.230Z,6.63
2022-11-01T13:07:55.845Z,6.00
2022-11-01T13:10:34.168Z,5.50
2022-11-01T13:13:17.629Z,9.30
2022-11-01T13:16:08.693Z,5.25
2022-11-01T13:18:46.637Z,6.93
2022-11-01T13:21:49.828Z,7.22
2022-11-01T13:25:12.258Z,6.90
2022-11-01T13:27:51.413Z,6.90
2022-11-01T13:30:20.574Z,7.15
2022-11-01T13:33:16.801Z,7.95
2022-11-01T13:36:28.701Z,8.15
2022-11-01T13:39:07.350Z,7.07
2022-11-01T13:41:57.712Z,6.03
2022-11-01T13:44:31.151Z,6.18
2022-11-01T13:47:53.257Z,9.07
2022-11-01T13:50:42.136Z,6.30
2022-11-01T13:54:04.635Z,4.40
2022-11-01T13:56:48.665Z,5.55
2022-11-01T14:02:24.395Z,5.88
2022-11-01T14:05:10.709Z,5.75
2022-11-01T14:08:04.603Z,6.43
2022-11-01T14:13:07.424Z,6.15
2022-11-01T14:15:39.642Z,4.82
2022-11-01T14:18:11.366Z,4.35
2022-11-01T14:20:43.749Z,6.95
2022-11-01T14:23:28.753Z,6.43
2022-11-01T14:26:20.191Z,8.23
2022-11-01T14:28:55.185Z,4.25
2022-11-01T14:31:27.911Z,4.88
2022-11-01T14:33:59.987Z,6.30
2022-11-01T14:36:33.017Z,6.15
2022-11-01T14:39:15.915Z,5.30
2022-11-01T14:41:44.637Z,6.50
2022-11-01T14:44:25.978Z,5.72
2022-11-01T14:46:58.001Z,6.38
2022-11-01T14:49:35.967Z,6.47
2022-11-01T14:52:15.961Z,6.75
2022-11-01T14:55:13.773Z,6.97
2022-11-01T14:57:40.785Z,5.95
2022-11-01T15:00:28.445Z,4.55
2022-11-01T15:05:27.185Z,7.60
2022-11-01T15:08:01.274Z,5.53
2022-11-01T15:10:40.643Z,5.47
2022-11-01T15:13:07.403Z,7.10
2022-11-01T15:15:38.193Z,5.32
2022-11-01T15:18:14.697Z,9.23
2022-11-01T15:20:48.485Z,5.47
2022-11-01T15:25:54.473Z,4.78
2022-11-01T15:28:26.545Z,4.05
2022-11-01T15:31:01.018Z,5.50
2022-11-01T15:33:32.543Z,6.50
2022-11-01T15:36:20.257Z,8.57
2022-11-01T15:39:00.953Z,6.85
2022-11-01T15:41:33.982Z,5.40
2022-11-01T15:44:06.969Z,6.30
2022-11-01T15:46:40.639Z,7.53
2022-11-01T15:49:15.793Z,6.20
2022-11-01T15:51:54.310Z,5.18
2022-11-01T15:54:45.594Z,5.97
2022-11-01T15:57:23.944Z,4.90
2022-11-01T15:59:57.866Z,5.68
2022-11-01T16:02:41.042Z,6.05
2022-11-01T16:05:12.112Z,6.55
2022-11-01T16:07:40.274Z,5.65
2022-11-01T16:10:16.503Z,6.47
2022-11-01T16:12:45.970Z,4.95
2022-11-01T16:15:28.181Z,5.07
2022-11-01T16:17:57.524Z,5.35
2022-11-01T16:20:37.402Z,5.55
2022-11-01T16:23:10.440Z,5.35
2022-11-01T16:25:39.801Z,10.27
2022-11-01T16:28:09.580Z,6.55
2022-11-01T16:30:48.381Z,7.30
2022-11-01T16:33:36.541Z,7.75
2022-11-01T16:36:32.930Z,6.18
2022-11-01T16:38:59.706Z,7.13
2022-11-01T16:41:40.691Z,5.32
2022-11-01T16:44:16.128Z,8.43
2022-11-01T16:46:43.244Z,4.97
2022-11-01T16:49:21.069Z,6.93
2022-11-01T16:51:47.831Z,8.07
2022-11-01T16:54:15.077Z,7.47
2022-11-01T16:56:49.990Z,6.55
2022-11-01T16:59:28.742Z,6.10
2022-11-01T17:01:58.416Z,6.72
2022-11-01T17:04:26.973Z,6.88
2022-11-01T17:06:57.839Z,7.90
2022-11-01T17:09:24.990Z,6.82
2022-11-01T17:11:53.798Z,5.57
2022-11-01T17:14:22.162Z,7.20
2022-11-01T17:16:52.483Z,6.20
2022-11-01T17:19:33.698Z,7.57
2022-11-01T17:22:06.876Z,5.95
2022-11-01T17:24:34.155Z,6.53
2022-11-01T17:27:05.253Z,7.53
2022-11-01T17:29:32.807Z,7.25
2022-11-01T17:32:01.093Z,6.88
2022-11-01T17:34:28.979Z,7.53
2022-11-01T17:36:57.470Z,6.75
2022-11-01T17:39:28.733Z,7.20
2022-11-01T17:41:56.319Z,6.30
2022-11-01T17:44:23.168Z,7.63
2022-11-01T17:46:50.849Z,6.18
2022-11-01T17:49:21.451Z,7.35
2022-11-01T17:51:53.291Z,6.68
2022-11-01T17:54:21.983Z,8.10
2022-11-01T17:56:48.767Z,9.20
2022-11-01T17:59:15.543Z,7.05
2022-11-01T18:01:42.799Z,8.40
2022-11-01T18:04:09.761Z,7.65
2022-11-01T18:06:36.494Z,7.72
2022-11-01T18:09:25.581Z,7.18
2022-11-01T18:12:31.285Z,7.13
2022-11-01T18:15:08.341Z,7.18
2022-11-01T18:18:04.028Z,6.47
2022-11-01T18:21:19.751Z,8.38
2022-11-01T18:23:48.973Z,5.65
2022-11-01T18:26:22.943Z,7.38
2022-11-01T18:28:54.794Z,6.93
2022-11-01T18:31:31.371Z,6.90
2022-11-01T18:34:46.533Z,9.02
2022-11-01T18:37:29.512Z,6.07
2022-11-01T18:40:10.462Z,7.40
2022-11-01T18:42:37.379Z,6.50
2022-11-01T18:45:31.787Z,5.88
2022-11-01T18:48:16.967Z,6.32
2022-11-01T18:50:44.056Z,5.30
2022-11-01T18:53:17.989Z,7.28
2022-11-01T18:55:49.482Z,7.82
2022-11-01T18:58:28.816Z,6.93
2022-11-01T19:01:23.885Z,9.30
2022-11-01T19:04:10.860Z,10.57
2022-11-01T19:06:37.812Z,8.55
2022-11-01T19:09:24.521Z,10.18
2022-11-01T19:12:01.463Z,8.60
2022-11-01T19:14:30.507Z,7.75
2022-11-01T19:16:58.313Z,10.05
2022-11-01T19:19:25.052Z,10.80
2022-11-01T19:21:57.322Z,9.30
2022-11-01T19:24:37.886Z,9.00
2022-11-01T19:27:20.911Z,10.57
2022-11-01T19:29:52.847Z,8.48
2022-11-01T19:32:24.675Z,9.93
2022-11-01T19:34:52.944Z,8.57
2022-11-01T19:37:30.483Z,9.23
2022-11-01T19:40:00.134Z,7.82
2022-11-01T19:42:31.599Z,11.32
2022-11-01T19:45:06.565Z,9.40
2022-11-01T19:47:40.535Z,8.77
2022-11-01T19:50:29.709Z,9.20
2022-11-01T19:52:59.236Z,7.78
2022-11-01T19:55:53.690Z,10.48
2022-11-01T20:01:09.426Z,9.55
2022-11-01T20:03:44.958Z,9.68
2022-11-01T20:06:14.650Z,9.20
2022-11-01T20:08:42.792Z,10.30
2022-11-01T20:11:09.704Z,9.45
2022-11-01T20:13:36.493Z,10.93
2022-11-01T20:16:03.222Z,10.95
2022-11-01T20:18:30.012Z,10.57
2022-11-01T20:20:57.666Z,11.40
2022-11-01T20:23:26.949Z,8.77
2022-11-01T20:25:55.165Z,11.63
2022-11-01T20:28:21.988Z,11.80
2022-11-01T20:30:48.743Z,12.68
2022-11-01T20:33:16.396Z,12.63
2022-11-01T20:35:43.420Z,11.48
2022-11-01T20:38:10.378Z,10.00
2022-11-01T20:40:37.348Z,9.27
2022-11-01T20:43:04.533Z,10.23
2022-11-01T20:45:31.644Z,8.32
2022-11-01T20:47:58.358Z,10.38
2022-11-01T20:50:25.124Z,9.40
2022-11-01T20:52:51.968Z,11.43
2022-11-01T20:55:19.588Z,12.98
2022-11-01T20:57:46.478Z,11.88
2022-11-01T21:00:18.002Z,11.63
2022-11-01T21:02:46.665Z,10.73
2022-11-01T21:05:31.329Z,10.52
2022-11-01T21:08:30.403Z,11.60
2022-11-01T21:11:01.588Z,8.73
2022-11-01T21:13:35.519Z,9.15
2022-11-01T21:16:07.666Z,11.35
2022-11-01T21:18:43.564Z,8.32
2022-11-01T21:21:16.176Z,7.90
2022-11-01T21:23:44.690Z,8.95
2022-11-01T21:26:23.885Z,10.23
2022-11-01T21:28:58.720Z,8.15
2022-11-01T21:31:29.676Z,7.60
2022-11-01T21:34:22.900Z,8.77
2022-11-01T21:36:53.371Z,7.85
2022-11-01T21:39:27.108Z,7.60
2022-11-01T21:42:01.644Z,7.90
2022-11-01T21:44:34.379Z,7.15
2022-11-01T21:47:19.061Z,8.90
2022-11-01T21:49:45.884Z,9.18
2022-11-01T21:52:13.728Z,8.02
2022-11-01T21:54:42.340Z,9.20
2022-11-01T21:57:12.000Z,8.57
2022-11-01T21:59:39.954Z,9.20
2022-11-01T22:02:11.048Z,9.57
2022-11-01T22:04:38.236Z,9.63
2022-11-01T22:07:07.107Z,10.40
2022-11-01T22:09:34.813Z,9.80
2022-11-01T22:12:01.753Z,8.35
2022-11-01T22:14:28.601Z,9.77
2022-11-01T22:16:55.343Z,8.52
2022-11-01T22:19:22.130Z,9.68
2022-11-01T22:21:48.830Z,12.20
2022-11-01T22:24:15.550Z,10.48
2022-11-01T22:26:42.289Z,9.23
2022-11-01T22:29:09.078Z,9.38
2022-11-01T22:31:35.835Z,8.98
2022-11-01T22:34:02.750Z,9.30
2022-11-01T22:36:35.694Z,8.38
2022-11-01T22:39:27.585Z,8.37
2022-11-01T22:41:55.158Z,11.85
2022-11-01T22:44:32.387Z,7.35
2022-11-01T22:47:02.687Z,8.50
2022-11-01T22:49:41.653Z,6.82
2022-11-01T22:52:31.750Z,7.22
2022-11-01T22:55:10.407Z,6.75
2022-11-01T22:57:54.292Z,6.45
2022-11-01T23:00:32.653Z,6.97
2022-11-01T23:03:22.622Z,6.20
2022-11-01T23:06:00.050Z,8.13
2022-11-01T23:08:29.682Z,7.53
2022-11-01T23:10:57.347Z,7.25
2022-11-01T23:13:50.660Z,6.45
2022-11-01T23:16:20.127Z,5.82
2022-11-01T23:18:46.887Z,7.63
2022-11-01T23:21:13.661Z,5.80
2022-11-01T23:23:45.006Z,5.93
2022-11-01T23:26:15.083Z,6.10
2022-11-01T23:28:46.484Z,5.68
2022-11-01T23:31:13.937Z,7.05
2022-11-01T23:33:44.628Z,5.30
2022-11-01T23:36:31.375Z,5.10
2022-11-01T23:39:08.944Z,7.20
2022-11-01T23:41:42.637Z,6.45
2022-11-01T23:44:29.652Z,4.85
2022-11-01T23:47:05.641Z,5.97
2022-11-01T23:49:34.510Z,5.57
2022-11-01T23:52:01.408Z,4.90
2022-11-01T23:54:42.147Z,5.50
2022-11-01T23:57:19.569Z,5.40
2022-11-01T23:59:49.507Z,5.30
